createdAt,value
2022-11-19T00:00:26.290Z,102361.66
2022-11-19T00:03:33.539Z,102345.28
2022-11-19T00:06:37.997Z,102354.47
2022-11-19T00:09:42.263Z,102354.94
2022-11-19T00:12:56.015Z,102358.75
2022-11-19T00:16:09.274Z,102348.31
2022-11-19T00:19:15.522Z,102353.09
2022-11-19T00:22:19.878Z,102340.16
2022-11-19T00:25:28.356Z,102318.09
2022-11-19T00:28:33.541Z,102322.06
2022-11-19T00:31:38.665Z,102320.41
2022-11-19T00:34:43.040Z,102309.91
2022-11-19T00:37:47.310Z,102316.03
2022-11-19T00:40:51.695Z,102323.41
2022-11-19T00:43:56.551Z,102317.44
2022-11-19T00:47:00.847Z,102305.28
2022-11-19T00:50:05.590Z,102304.53
2022-11-19T00:53:10.137Z,102274.81
2022-11-19T00:56:16.825Z,102306.31
2022-11-19T00:59:21.502Z,102292.63
2022-11-19T01:02:26.169Z,102293.00
2022-11-19T01:05:30.483Z,102252.38
2022-11-19T01:08:34.850Z,102280.19
2022-11-19T01:11:40.045Z,102298.13
2022-11-19T01:14:44.578Z,102260.91
2022-11-19T01:17:48.679Z,102289.50
2022-11-19T01:20:52.929Z,102273.22
2022-11-19T01:23:57.779Z,102271.56
2022-11-19T01:27:01.762Z,102267.56
2022-11-19T01:30:07.663Z,102266.56
2022-11-19T01:33:12.548Z,102274.13
2022-11-19T01:36:19.624Z,102260.91
2022-11-19T01:39:23.747Z,102271.75
2022-11-19T01:42:49.442Z,102248.88
2022-11-19T01:45:55.245Z,102243.25
2022-11-19T01:49:20.484Z,102248.38
2022-11-19T01:52:25.657Z,102253.81
2022-11-19T01:55:31.081Z,102245.31
2022-11-19T01:58:42.557Z,102249.03
2022-11-19T02:01:47.411Z,102243.63
2022-11-19T02:04:53.794Z,102238.97
2022-11-19T02:08:00.340Z,102244.50
2022-11-19T02:11:22.588Z,102250.84
2022-11-19T02:14:30.209Z,102239.06
2022-11-19T02:18:03.450Z,102229.31
2022-11-19T02:21:44.616Z,102224.38
2022-11-19T02:24:56.767Z,102174.56
2022-11-19T02:28:04.339Z,102194.34
2022-11-19T02:31:29.972Z,102182.78
2022-11-19T02:34:43.972Z,102176.88
2022-11-19T02:37:57.080Z,102173.00
2022-11-19T02:41:29.506Z,102168.06
2022-11-19T02:45:03.501Z,102166.66
2022-11-19T02:48:39.981Z,102155.78
2022-11-19T02:51:44.959Z,102150.63
2022-11-19T02:54:49.308Z,102152.69
2022-11-19T02:58:07.615Z,102143.16
2022-11-19T03:01:30.346Z,102128.13
2022-11-19T03:04:35.220Z,102128.53
2022-11-19T03:07:40.373Z,102100.63
2022-11-19T03:11:11.474Z,102092.00
2022-11-19T03:15:04.171Z,102090.44
2022-11-19T03:18:23.205Z,102075.53
2022-11-19T03:22:06.149Z,102055.03
2022-11-19T03:25:17.511Z,102047.38
2022-11-19T03:28:27.902Z,102044.41
2022-11-19T03:31:34.345Z,102041.63
2022-11-19T03:34:40.683Z,102047.59
2022-11-19T03:37:47.337Z,102040.22
2022-11-19T03:40:53.221Z,102033.53
2022-11-19T03:44:10.007Z,102043.25
2022-11-19T03:47:21.931Z,102060.97
2022-11-19T03:50:46.354Z,102041.19
2022-11-19T03:53:50.887Z,102037.16
2022-11-19T03:56:57.129Z,102017.38
2022-11-19T04:00:02.079Z,102017.50
2022-11-19T04:03:16.403Z,102016.13
2022-11-19T04:06:20.412Z,102012.91
2022-11-19T04:09:25.041Z,102014.53
2022-11-19T04:12:29.388Z,102010.00
2022-11-19T04:15:33.508Z,101985.16
2022-11-19T04:18:37.863Z,101962.94
2022-11-19T04:21:43.020Z,101970.59
2022-11-19T04:24:47.611Z,101977.53
2022-11-19T04:27:52.043Z,101965.91
2022-11-19T04:30:56.192Z,101949.44
2022-11-19T04:34:00.589Z,101951.25
2022-11-19T04:37:06.777Z,101954.56
2022-11-19T04:40:11.703Z,101936.22
2022-11-19T04:43:16.364Z,101938.59
2022-11-19T04:46:20.808Z,101934.41
2022-11-19T04:49:25.382Z,101931.47
2022-11-19T04:52:29.713Z,101960.03
2022-11-19T04:55:34.017Z,101892.59
2022-11-19T04:58:39.227Z,101953.56
2022-11-19T05:01:43.584Z,101950.41
2022-11-19T05:04:47.908Z,101953.63
2022-11-19T05:07:52.399Z,101955.59
2022-11-19T05:10:57.318Z,101946.47
2022-11-19T05:14:01.621Z,101953.47
2022-11-19T05:17:06.596Z,101919.00
2022-11-19T05:20:11.453Z,101898.75
2022-11-19T05:23:15.810Z,101904.06
2022-11-19T05:26:20.330Z,101900.88
2022-11-19T05:29:24.627Z,101880.31
2022-11-19T05:32:28.773Z,101905.47
2022-11-19T05:35:33.916Z,101918.72
2022-11-19T05:38:38.478Z,101890.31
2022-11-19T05:41:42.782Z,101895.72
2022-11-19T05:44:47.587Z,101888.31
2022-11-19T05:47:56.424Z,101877.09
2022-11-19T05:51:00.868Z,101882.97
2022-11-19T05:54:05.226Z,101877.09
2022-11-19T05:57:09.719Z,101862.81
2022-11-19T06:00:14.556Z,101866.22
2022-11-19T06:03:18.861Z,101859.44
2022-11-19T06:06:23.392Z,101846.78
2022-11-19T06:09:27.572Z,101842.38
2022-11-19T06:12:31.875Z,101808.72
2022-11-19T06:15:36.243Z,101809.41
2022-11-19T06:18:40.444Z,101820.66
2022-11-19T06:21:45.305Z,101828.75
2022-11-19T06:24:49.489Z,101834.59
2022-11-19T06:27:53.780Z,101845.59
2022-11-19T06:30:57.980Z,101848.00
2022-11-19T06:34:02.466Z,101841.53
2022-11-19T06:37:06.866Z,101824.44
2022-11-19T06:40:11.673Z,101823.88
2022-11-19T06:43:16.382Z,101813.31
2022-11-19T06:46:20.558Z,101818.44
2022-11-19T06:49:25.277Z,101822.16
2022-11-19T06:52:30.067Z,101826.03
2022-11-19T06:55:34.771Z,101817.72
2022-11-19T06:58:39.136Z,101831.28
2022-11-19T07:01:43.790Z,101814.13
2022-11-19T07:04:48.337Z,101819.34
2022-11-19T07:07:52.691Z,101817.78
2022-11-19T07:10:58.546Z,101810.97
2022-11-19T07:14:04.650Z,101792.97
2022-11-19T07:17:09.097Z,101803.41
2022-11-19T07:20:13.657Z,101809.16
2022-11-19T07:23:18.074Z,101802.28
2022-11-19T07:26:22.709Z,101790.75
2022-11-19T07:29:27.312Z,101774.78
2022-11-19T07:32:31.597Z,101772.50
2022-11-19T07:35:36.111Z,101786.91
2022-11-19T07:38:40.776Z,101787.72
2022-11-19T07:42:03.973Z,101787.81
2022-11-19T07:45:10.989Z,101779.50
2022-11-19T07:48:15.766Z,101772.78
2022-11-19T07:51:20.355Z,101767.53
2022-11-19T07:54:24.533Z,101756.00
2022-11-19T07:57:30.492Z,101765.59
2022-11-19T08:00:35.236Z,101772.28
2022-11-19T08:03:39.848Z,101775.91
2022-11-19T08:06:44.075Z,101762.28
2022-11-19T08:09:48.445Z,101780.31
2022-11-19T08:13:03.967Z,101772.81
2022-11-19T08:16:13.932Z,101778.16
2022-11-19T08:19:19.809Z,101761.72
2022-11-19T08:22:24.656Z,101752.28
2022-11-19T08:25:28.788Z,101757.34
2022-11-19T08:28:33.797Z,101746.84
2022-11-19T08:31:38.970Z,101740.53
2022-11-19T08:34:43.105Z,101718.47
2022-11-19T08:37:48.498Z,101739.81
2022-11-19T08:41:16.449Z,101736.00
2022-11-19T08:44:21.312Z,101715.94
2022-11-19T08:47:26.110Z,101728.22
2022-11-19T08:50:32.480Z,101720.34
2022-11-19T08:53:37.096Z,101708.34
2022-11-19T08:56:41.360Z,101708.38
2022-11-19T08:59:45.849Z,101705.00
2022-11-19T09:02:50.110Z,101681.44
2022-11-19T09:06:01.982Z,101703.69
2022-11-19T09:09:06.753Z,101700.94
2022-11-19T09:12:11.234Z,101648.53
2022-11-19T09:15:15.507Z,101677.50
2022-11-19T09:18:20.441Z,101680.75
2022-11-19T09:21:24.906Z,101673.09
2022-11-19T09:24:29.277Z,101679.31
2022-11-19T09:27:33.665Z,101678.56
2022-11-19T09:30:38.022Z,101674.22
2022-11-19T09:33:44.982Z,101662.84
2022-11-19T09:36:49.361Z,101661.13
2022-11-19T09:39:53.823Z,101650.81
2022-11-19T09:43:33.016Z,101669.44
2022-11-19T09:47:05.437Z,101672.75
2022-11-19T09:50:21.876Z,101679.38
2022-11-19T09:53:31.132Z,101633.84
2022-11-19T09:56:44.341Z,101666.66
2022-11-19T09:59:51.626Z,101658.31
2022-11-19T10:02:57.963Z,101624.75
2022-11-19T10:06:05.109Z,101637.81
2022-11-19T10:09:27.524Z,101603.69
2022-11-19T10:12:50.083Z,101555.44
2022-11-19T10:16:12.128Z,101623.47
2022-11-19T10:19:42.767Z,101625.16
2022-11-19T10:22:57.138Z,101630.22
2022-11-19T10:26:06.593Z,101626.41
2022-11-19T10:29:21.946Z,101633.81
2022-11-19T10:32:38.921Z,101622.47
2022-11-19T10:35:53.631Z,101609.75
2022-11-19T10:39:08.733Z,101622.75
2022-11-19T10:42:30.145Z,101629.47
2022-11-19T10:45:34.445Z,101616.06
2022-11-19T10:48:43.504Z,101625.25
2022-11-19T10:51:47.794Z,101604.25
2022-11-19T10:54:57.793Z,101601.53
2022-11-19T10:58:20.460Z,101581.75
2022-11-19T11:01:35.084Z,101577.13
2022-11-19T11:05:08.366Z,101571.41
2022-11-19T11:08:13.080Z,101576.94
2022-11-19T11:11:53.737Z,101570.50
2022-11-19T11:15:13.897Z,101582.63
2022-11-19T11:18:20.494Z,101583.06
2022-11-19T11:21:30.669Z,101577.28
2022-11-19T11:24:39.446Z,101572.81
2022-11-19T11:27:43.901Z,101546.88
2022-11-19T11:31:01.603Z,101557.69
2022-11-19T11:34:08.900Z,101568.13
2022-11-19T11:37:14.012Z,101548.47
2022-11-19T11:40:23.065Z,101550.13
2022-11-19T11:43:29.592Z,101544.19
2022-11-19T11:46:47.829Z,101542.16
2022-11-19T11:50:01.622Z,101555.34
2022-11-19T11:53:10.817Z,101552.84
2022-11-19T11:56:22.741Z,101564.00
2022-11-19T11:59:32.370Z,101558.25
2022-11-19T12:02:37.451Z,101562.63
2022-11-19T12:06:06.615Z,101567.06
2022-11-19T12:09:26.573Z,101560.81
2022-11-19T12:12:49.359Z,101568.81
2022-11-19T12:15:56.416Z,101559.09
2022-11-19T12:19:25.219Z,101550.13
2022-11-19T12:22:43.686Z,101550.84
2022-11-19T12:26:35.485Z,101558.44
2022-11-19T12:30:11.629Z,101556.09
2022-11-19T12:33:46.060Z,101545.06
2022-11-19T12:37:09.399Z,101545.81
2022-11-19T12:40:22.331Z,101532.03
2022-11-19T12:43:48.248Z,101514.34
2022-11-19T12:47:05.140Z,101506.81
2022-11-19T12:50:20.206Z,101484.81
2022-11-19T12:54:02.492Z,101497.75
2022-11-19T12:57:28.817Z,101510.03
2022-11-19T13:00:40.994Z,101501.28
2022-11-19T13:04:03.984Z,101496.13
2022-11-19T13:07:15.627Z,101480.44
2022-11-19T13:10:37.087Z,101511.19
2022-11-19T13:13:48.074Z,101525.13
2022-11-19T13:16:55.125Z,101511.41
2022-11-19T13:20:08.552Z,101518.47
2022-11-19T13:23:33.755Z,101456.88
2022-11-19T13:26:38.869Z,101510.44
2022-11-19T13:30:11.445Z,101507.00
2022-11-19T13:33:20.137Z,101491.66
2022-11-19T13:36:35.032Z,101477.38
2022-11-19T13:39:48.742Z,101493.47
2022-11-19T13:47:03.611Z,101444.03
2022-11-19T13:50:24.592Z,101504.94
2022-11-19T13:53:44.373Z,101496.63
2022-11-19T13:56:52.034Z,101500.25
2022-11-19T14:00:08.342Z,101499.59
2022-11-19T14:03:34.085Z,101487.94
2022-11-19T14:06:59.691Z,101487.38
2022-11-19T14:10:48.418Z,101461.28
2022-11-19T14:14:31.319Z,101449.31
2022-11-19T14:18:01.437Z,101448.09
2022-11-19T14:22:02.441Z,101463.47
2022-11-19T14:25:28.573Z,101440.47
2022-11-19T14:28:42.149Z,101458.88
2022-11-19T14:32:01.993Z,101440.81
2022-11-19T14:35:08.310Z,101442.25
2022-11-19T14:38:21.380Z,101442.56
2022-11-19T14:41:31.901Z,101443.78
2022-11-19T14:44:36.780Z,101445.97
2022-11-19T14:47:44.478Z,101446.69
2022-11-19T14:51:02.225Z,101436.50
2022-11-19T14:54:31.847Z,101441.22
2022-11-19T14:57:42.838Z,101428.84
2022-11-19T15:00:47.619Z,101430.63
2022-11-19T15:04:06.348Z,101408.97
2022-11-19T15:07:18.800Z,101399.63
2022-11-19T15:10:32.945Z,101379.97
2022-11-19T15:13:38.556Z,101416.63
2022-11-19T15:16:47.641Z,101410.25
2022-11-19T15:20:07.752Z,101406.72
2022-11-19T15:23:21.374Z,101420.94
2022-11-19T15:26:34.388Z,101422.63
2022-11-19T15:30:00.554Z,101418.41
2022-11-19T15:33:24.565Z,101389.94
2022-11-19T15:36:37.497Z,101366.03
2022-11-19T15:39:51.457Z,101384.41
2022-11-19T15:43:34.261Z,101387.22
2022-11-19T15:46:49.554Z,101389.56
2022-11-19T15:49:55.877Z,101389.78
2022-11-19T15:53:01.514Z,101382.91
2022-11-19T15:56:12.392Z,101388.72
2022-11-19T15:59:23.503Z,101396.22
2022-11-19T16:02:43.147Z,101397.75
2022-11-19T16:06:02.760Z,101396.38
2022-11-19T16:09:06.996Z,101389.88
2022-11-19T16:12:40.201Z,101394.81
2022-11-19T16:16:15.676Z,101394.44
2022-11-19T16:19:20.393Z,101413.22
2022-11-19T16:22:24.813Z,101382.28
2022-11-19T16:25:32.673Z,101396.88
2022-11-19T16:28:37.883Z,101375.66
2022-11-19T16:31:42.199Z,101380.31
2022-11-19T16:34:47.068Z,101391.91
2022-11-19T16:37:52.693Z,101396.28
2022-11-19T16:41:17.173Z,101387.41
2022-11-19T16:44:22.782Z,101357.75
2022-11-19T16:47:38.795Z,101386.19
2022-11-19T16:50:46.635Z,101366.31
2022-11-19T16:53:51.519Z,101363.38
2022-11-19T16:56:56.269Z,101383.59
2022-11-19T17:00:03.661Z,101381.50
2022-11-19T17:03:40.272Z,101360.16
2022-11-19T17:06:44.582Z,101393.47
2022-11-19T17:09:50.685Z,101392.31
2022-11-19T17:12:58.743Z,101387.22
2022-11-19T17:16:19.332Z,101394.75
2022-11-19T17:19:33.904Z,101394.75
2022-11-19T17:22:40.609Z,101390.13
2022-11-19T17:26:02.649Z,101387.94
2022-11-19T17:29:14.008Z,101398.56
2022-11-19T17:32:18.313Z,101400.19
2022-11-19T17:35:39.013Z,101378.81
2022-11-19T17:38:43.321Z,101389.16
2022-11-19T17:42:06.699Z,101380.59
2022-11-19T17:45:11.512Z,101366.16
2022-11-19T17:48:24.838Z,101377.03
2022-11-19T17:51:29.047Z,101363.94
2022-11-19T17:54:34.750Z,101368.44
2022-11-19T17:57:42.581Z,101343.09
2022-11-19T18:00:47.164Z,101387.69
2022-11-19T18:03:51.194Z,101386.78
2022-11-19T18:06:56.092Z,101379.44
2022-11-19T18:10:00.750Z,101382.00
2022-11-19T18:13:07.107Z,101370.50
2022-11-19T18:16:16.734Z,101370.28
2022-11-19T18:19:29.558Z,101364.91
2022-11-19T18:22:34.072Z,101315.66
2022-11-19T18:25:38.734Z,101348.34
2022-11-19T18:28:48.633Z,101330.06
2022-11-19T18:31:54.140Z,101334.59
2022-11-19T18:35:02.080Z,101332.13
2022-11-19T18:38:06.651Z,101340.78
2022-11-19T18:41:17.350Z,101344.09
2022-11-19T18:44:36.633Z,101347.56
2022-11-19T18:47:41.011Z,101346.69
2022-11-19T18:50:45.303Z,101350.53
2022-11-19T18:53:50.041Z,101359.81
2022-11-19T18:56:54.293Z,101354.72
2022-11-19T18:59:58.636Z,101336.94
2022-11-19T19:03:03.902Z,101370.78
2022-11-19T19:06:10.038Z,101378.59
2022-11-19T19:09:21.813Z,101368.00
2022-11-19T19:12:26.495Z,101374.28
2022-11-19T19:15:30.860Z,101359.81
2022-11-19T19:18:36.182Z,101346.63
2022-11-19T19:21:40.690Z,101345.69
2022-11-19T19:24:45.564Z,101357.22
2022-11-19T19:27:49.888Z,101353.16
2022-11-19T19:30:59.856Z,101347.59
2022-11-19T19:34:04.510Z,101347.16
2022-11-19T19:37:09.228Z,101354.16
2022-11-19T19:40:13.945Z,101342.44
2022-11-19T19:43:19.255Z,101323.47
2022-11-19T19:46:25.552Z,101324.97
2022-11-19T19:49:32.450Z,101329.59
2022-11-19T19:52:40.513Z,101303.06
2022-11-19T19:55:44.623Z,101303.75
2022-11-19T19:58:51.565Z,101316.19
2022-11-19T20:01:55.955Z,101314.94
2022-11-19T20:05:00.444Z,101312.00
2022-11-19T20:08:04.791Z,101325.69
2022-11-19T20:11:15.662Z,101324.44
2022-11-19T20:14:21.446Z,101303.34
2022-11-19T20:17:25.757Z,101325.38
2022-11-19T20:20:30.011Z,101334.69
2022-11-19T20:23:34.684Z,101336.22
2022-11-19T20:26:38.943Z,101339.38
2022-11-19T20:29:43.212Z,101334.84
2022-11-19T20:32:49.579Z,101330.59
2022-11-19T20:35:54.307Z,101335.22
2022-11-19T20:38:59.778Z,101327.78
2022-11-19T20:42:22.249Z,101320.38
2022-11-19T20:45:26.670Z,101306.25
2022-11-19T20:48:30.778Z,101322.16
2022-11-19T20:51:38.549Z,101294.97
2022-11-19T20:54:43.254Z,101303.16
2022-11-19T20:57:47.617Z,101303.44
2022-11-19T21:00:59.022Z,101303.75
2022-11-19T21:04:03.777Z,101295.03
2022-11-19T21:07:08.064Z,101286.41
2022-11-19T21:10:13.417Z,101295.22
2022-11-19T21:13:17.550Z,101278.00
2022-11-19T21:16:24.836Z,101288.22
2022-11-19T21:19:29.505Z,101274.94
2022-11-19T21:22:33.958Z,101278.22
2022-11-19T21:25:38.553Z,101271.41
2022-11-19T21:28:43.279Z,101281.19
2022-11-19T21:31:49.527Z,101260.22
2022-11-19T21:34:53.818Z,101264.03
2022-11-19T21:37:58.113Z,101243.06
2022-11-19T21:41:02.505Z,101259.06
2022-11-19T21:44:07.184Z,101244.81
2022-11-19T21:47:12.508Z,101244.19
2022-11-19T21:50:17.784Z,101247.00
2022-11-19T21:53:23.053Z,101254.34
2022-11-19T21:56:33.668Z,101254.50
2022-11-19T21:59:41.409Z,101253.22
2022-11-19T22:02:45.668Z,101253.22
2022-11-19T22:06:01.679Z,101235.81
2022-11-19T22:09:05.787Z,101259.63
2022-11-19T22:12:10.003Z,101257.28
2022-11-19T22:15:14.608Z,101260.56
2022-11-19T22:18:19.176Z,101269.84
2022-11-19T22:21:23.785Z,101266.41
2022-11-19T22:24:28.211Z,101271.78
2022-11-19T22:27:32.663Z,101250.00
2022-11-19T22:30:37.084Z,101255.50
2022-11-19T22:33:43.568Z,101267.31
2022-11-19T22:36:48.117Z,101280.38
2022-11-19T22:39:52.554Z,101276.69
2022-11-19T22:42:56.658Z,101259.84
2022-11-19T22:46:01.535Z,101272.41
2022-11-19T22:49:05.684Z,101293.13
2022-11-19T22:52:10.107Z,101274.25
2022-11-19T22:55:14.822Z,101277.63
2022-11-19T22:58:19.203Z,101290.47
2022-11-19T23:01:25.120Z,101293.69
2022-11-19T23:04:30.108Z,101271.63
2022-11-19T23:07:34.468Z,101289.88
2022-11-19T23:10:38.773Z,101295.19
2022-11-19T23:13:45.248Z,101298.00
2022-11-19T23:16:49.581Z,101292.84
2022-11-19T23:19:53.864Z,101286.91
2022-11-19T23:22:58.808Z,101269.03
2022-11-19T23:26:04.361Z,101277.47
2022-11-19T23:29:09.906Z,101307.78
2022-11-19T23:32:14.066Z,101302.69
2022-11-19T23:35:18.670Z,101293.41
2022-11-19T23:38:22.921Z,101283.53
2022-11-19T23:41:28.564Z,101293.31
2022-11-19T23:44:32.648Z,101304.84
2022-11-19T23:47:39.914Z,101290.00
2022-11-19T23:50:44.415Z,101281.19
2022-11-19T23:53:49.237Z,101280.31
2022-11-19T23:56:53.489Z,101251.13
2022-11-19T23:59:57.910Z,101299.03
